Current Conditions
Overcast
Conditions



Rainfall
0.00 (mm) - 0.00 (in)
Pressure
1021.92 (hPa) - 30.18 (inHG)
Visibility

10.0 (km) - 6.2 (miles)
   Temperature
-2  °C
28°F
-3  °C
Dewpoint
93  %
 Humidity
   Wind Speed
0  m/s
0  mph
0  km/h
0  kts
   Wind Direction
Calm
Due North
   Airport Data
ESMX
Location Växjö Kronoberg Airport 15 km (9.32 mi)
Metar :ESMX 300420Z AUTO 00000KT 9999 OVC011/// M02/M03 Q1022
Mon 30th November 05:20 am
   Raw Metar Info
Raw METAR is the most common format in the world for the transmission of observational weather data. It is highly standardized through the International Civil Aviation Organization (ICAO), which allows it to be understood throughout most of the world.
   API Info
Data Provided by
https://www.checkwx.com/weather/ESMX
   © Info
CSS/SVG/PHP scripts were developed by weather34.com for use in the weather34 template © 2015-2020

Guide Info provided by Metar-Wikipedia